Terminal Aerodrome Forecast
Issued by NWS

Home | Current Version | Previous Version | Text Only | Print | Product List | Glossary On
Versions: 1 2 3 4 5 6 7 8 9 10 11 12 13 14 15 16 17 18 19 20 21 22 23 24 25 26 27 28
000
FTUS41 KBOX 242339
TAFACK
TAF
KACK 242339Z 2500/2524 16015KT 1/2SM -RA FG VV002 WS020/20040KT
     FM250100 17018G27KT 1SM -RA BR OVC003 WS020/21040KT
     FM250200 18020G28KT 1SM -RA BR OVC003
     FM250300 18021G29KT 1SM -RA BR OVC001
     FM251200 20026KT 1SM -RA BR OVC008 WS020/22055KT
     FM251300 20025G33KT 2SM -RA BR OVC008
     FM251600 24022G34KT P6SM BKN015=

USA.gov is the U.S. government's official web portal to all federal, state and local government web resources and services.